sensor_id;sensor_type;location;lat;lon;timestamp;P1;durP1;ratioP1;P2;durP2;ratioP2
25435;SDS011;13363;52.772;-3.890;2023-05-18T00:02:06;5.17;;;3.50;;
25435;SDS011;13363;52.772;-3.890;2023-05-18T00:04:33;5.97;;;3.00;;
25435;SDS011;13363;52.772;-3.890;2023-05-18T00:07:00;5.23;;;2.90;;
25435;SDS011;13363;52.772;-3.890;2023-05-18T00:09:31;4.47;;;3.43;;
25435;SDS011;13363;52.772;-3.890;2023-05-18T00:11:58;5.50;;;3.40;;
25435;SDS011;13363;52.772;-3.890;2023-05-18T00:14:25;3.50;;;3.20;;
25435;SDS011;13363;52.772;-3.890;2023-05-18T00:16:51;3.63;;;3.33;;
25435;SDS011;13363;52.772;-3.890;2023-05-18T00:19:22;4.17;;;3.77;;
25435;SDS011;13363;52.772;-3.890;2023-05-18T00:21:49;5.17;;;3.53;;
25435;SDS011;13363;52.772;-3.890;2023-05-18T00:24:16;3.90;;;3.50;;
25435;SDS011;13363;52.772;-3.890;2023-05-18T00:26:43;3.63;;;3.17;;
25435;SDS011;13363;52.772;-3.890;2023-05-18T00:29:10;5.93;;;3.67;;
25435;SDS011;13363;52.772;-3.890;2023-05-18T00:31:37;4.50;;;3.20;;
25435;SDS011;13363;52.772;-3.890;2023-05-18T00:34:10;4.77;;;3.60;;
25435;SDS011;13363;52.772;-3.890;2023-05-18T00:36:37;6.37;;;3.37;;
25435;SDS011;13363;52.772;-3.890;2023-05-18T00:39:04;3.60;;;3.30;;
25435;SDS011;13363;52.772;-3.890;2023-05-18T00:41:30;3.90;;;3.50;;
25435;SDS011;13363;52.772;-3.890;2023-05-18T00:43:57;4.83;;;3.90;;
25435;SDS011;13363;52.772;-3.890;2023-05-18T00:46:24;4.03;;;3.00;;
25435;SDS011;13363;52.772;-3.890;2023-05-18T00:48:50;3.20;;;2.93;;
25435;SDS011;13363;52.772;-3.890;2023-05-18T00:51:17;4.83;;;3.53;;
25435;SDS011;13363;52.772;-3.890;2023-05-18T00:53:45;6.30;;;3.50;;
25435;SDS011;13363;52.772;-3.890;2023-05-18T00:56:12;4.47;;;3.93;;
25435;SDS011;13363;52.772;-3.890;2023-05-18T00:58:39;3.33;;;3.03;;
25435;SDS011;13363;52.772;-3.890;2023-05-18T01:01:06;4.93;;;3.53;;
25435;SDS011;13363;52.772;-3.890;2023-05-18T01:03:36;3.63;;;3.33;;
25435;SDS011;13363;52.772;-3.890;2023-05-18T01:06:06;5.23;;;3.70;;
25435;SDS011;13363;52.772;-3.890;2023-05-18T01:08:33;5.17;;;3.50;;
25435;SDS011;13363;52.772;-3.890;2023-05-18T01:11:12;4.37;;;3.33;;
25435;SDS011;13363;52.772;-3.890;2023-05-18T01:13:57;4.77;;;3.43;;
25435;SDS011;13363;52.772;-3.890;2023-05-18T01:16:55;3.90;;;3.60;;
25435;SDS011;13363;52.772;-3.890;2023-05-18T01:19:27;4.50;;;3.20;;
25435;SDS011;13363;52.772;-3.890;2023-05-18T01:25:14;4.07;;;3.63;;
25435;SDS011;13363;52.772;-3.890;2023-05-18T01:27:53;4.43;;;3.40;;
25435;SDS011;13363;52.772;-3.890;2023-05-18T01:30:21;5.27;;;3.60;;
25435;SDS011;13363;52.772;-3.890;2023-05-18T01:32:47;3.50;;;3.07;;
25435;SDS011;13363;52.772;-3.890;2023-05-18T01:35:13;5.13;;;3.63;;
25435;SDS011;13363;52.772;-3.890;2023-05-18T01:37:40;4.87;;;3.60;;
25435;SDS011;13363;52.772;-3.890;2023-05-18T01:40:06;3.93;;;3.63;;
25435;SDS011;13363;52.772;-3.890;2023-05-18T01:42:33;3.60;;;3.30;;
25435;SDS011;13363;52.772;-3.890;2023-05-18T01:45:07;4.17;;;3.77;;
25435;SDS011;13363;52.772;-3.890;2023-05-18T01:47:38;3.17;;;2.90;;
25435;SDS011;13363;52.772;-3.890;2023-05-18T01:52:43;6.30;;;3.57;;
25435;SDS011;13363;52.772;-3.890;2023-05-18T01:55:31;6.53;;;3.40;;
25435;SDS011;13363;52.772;-3.890;2023-05-18T01:57:59;4.20;;;3.73;;
25435;SDS011;13363;52.772;-3.890;2023-05-18T02:00:26;5.77;;;3.70;;
25435;SDS011;13363;52.772;-3.890;2023-05-18T02:02:52;4.33;;;3.93;;
25435;SDS011;13363;52.772;-3.890;2023-05-18T02:05:18;4.87;;;3.23;;
25435;SDS011;13363;52.772;-3.890;2023-05-18T02:07:44;3.80;;;3.50;;
25435;SDS011;13363;52.772;-3.890;2023-05-18T02:10:13;4.23;;;3.37;;
25435;SDS011;13363;52.772;-3.890;2023-05-18T02:12:40;5.77;;;3.40;;
25435;SDS011;13363;52.772;-3.890;2023-05-18T02:15:05;4.50;;;3.50;;
25435;SDS011;13363;52.772;-3.890;2023-05-18T02:17:32;6.53;;;3.93;;
25435;SDS011;13363;52.772;-3.890;2023-05-18T02:20:03;5.03;;;3.53;;
25435;SDS011;13363;52.772;-3.890;2023-05-18T02:22:33;3.87;;;3.57;;
25435;SDS011;13363;52.772;-3.890;2023-05-18T02:24:59;3.47;;;3.17;;
25435;SDS011;13363;52.772;-3.890;2023-05-18T02:27:25;4.17;;;3.60;;
25435;SDS011;13363;52.772;-3.890;2023-05-18T02:29:52;8.40;;;3.77;;
25435;SDS011;13363;52.772;-3.890;2023-05-18T02:32:18;4.90;;;3.40;;
25435;SDS011;13363;52.772;-3.890;2023-05-18T02:34:44;5.40;;;3.73;;
25435;SDS011;13363;52.772;-3.890;2023-05-18T02:37:11;4.87;;;3.20;;
25435;SDS011;13363;52.772;-3.890;2023-05-18T02:39:38;6.67;;;3.53;;
25435;SDS011;13363;52.772;-3.890;2023-05-18T02:42:04;5.47;;;3.47;;
25435;SDS011;13363;52.772;-3.890;2023-05-18T02:44:30;5.93;;;3.23;;
25435;SDS011;13363;52.772;-3.890;2023-05-18T02:46:57;3.60;;;3.30;;
25435;SDS011;13363;52.772;-3.890;2023-05-18T02:49:23;7.70;;;3.57;;
25435;SDS011;13363;52.772;-3.890;2023-05-18T02:51:49;5.43;;;3.50;;
25435;SDS011;13363;52.772;-3.890;2023-05-18T02:54:15;7.07;;;3.77;;
25435;SDS011;13363;52.772;-3.890;2023-05-18T02:56:41;5.00;;;3.50;;
25435;SDS011;13363;52.772;-3.890;2023-05-18T02:59:07;5.30;;;3.40;;
25435;SDS011;13363;52.772;-3.890;2023-05-18T03:01:33;3.97;;;3.13;;
25435;SDS011;13363;52.772;-3.890;2023-05-18T03:04:02;7.07;;;3.47;;
25435;SDS011;13363;52.772;-3.890;2023-05-18T03:06:27;4.00;;;3.53;;
25435;SDS011;13363;52.772;-3.890;2023-05-18T03:08:57;7.00;;;3.43;;
25435;SDS011;13363;52.772;-3.890;2023-05-18T03:11:23;5.43;;;3.40;;
25435;SDS011;13363;52.772;-3.890;2023-05-18T03:13:50;3.83;;;3.43;;
25435;SDS011;13363;52.772;-3.890;2023-05-18T03:16:16;4.37;;;3.57;;
25435;SDS011;13363;52.772;-3.890;2023-05-18T03:18:43;4.80;;;3.20;;
25435;SDS011;13363;52.772;-3.890;2023-05-18T03:21:10;4.20;;;3.37;;
25435;SDS011;13363;52.772;-3.890;2023-05-18T03:23:37;4.30;;;3.70;;
25435;SDS011;13363;52.772;-3.890;2023-05-18T03:26:03;3.97;;;3.50;;
25435;SDS011;13363;52.772;-3.890;2023-05-18T03:28:35;4.53;;;3.70;;
25435;SDS011;13363;52.772;-3.890;2023-05-18T03:31:02;6.87;;;3.23;;
25435;SDS011;13363;52.772;-3.890;2023-05-18T03:33:27;3.33;;;3.13;;
25435;SDS011;13363;52.772;-3.890;2023-05-18T03:35:54;4.47;;;3.40;;
25435;SDS011;13363;52.772;-3.890;2023-05-18T03:38:20;5.10;;;3.53;;
25435;SDS011;13363;52.772;-3.890;2023-05-18T03:40:46;3.47;;;3.17;;
25435;SDS011;13363;52.772;-3.890;2023-05-18T03:43:11;3.93;;;3.63;;
25435;SDS011;13363;52.772;-3.890;2023-05-18T03:45:37;4.93;;;3.63;;
25435;SDS011;13363;52.772;-3.890;2023-05-18T03:48:03;3.73;;;3.43;;
25435;SDS011;13363;52.772;-3.890;2023-05-18T03:50:30;3.47;;;3.17;;
25435;SDS011;13363;52.772;-3.890;2023-05-18T03:52:56;6.17;;;3.60;;
25435;SDS011;13363;52.772;-3.890;2023-05-18T03:55:22;3.60;;;3.40;;
25435;SDS011;13363;52.772;-3.890;2023-05-18T03:57:48;3.70;;;3.40;;
25435;SDS011;13363;52.772;-3.890;2023-05-18T04:00:14;4.63;;;3.17;;
25435;SDS011;13363;52.772;-3.890;2023-05-18T04:02:40;5.13;;;3.80;;
25435;SDS011;13363;52.772;-3.890;2023-05-18T04:05:06;4.23;;;3.00;;
25435;SDS011;13363;52.772;-3.890;2023-05-18T04:07:32;3.90;;;3.60;;
25435;SDS011;13363;52.772;-3.890;2023-05-18T04:09:58;5.10;;;4.70;;
25435;SDS011;13363;52.772;-3.890;2023-05-18T04:12:24;4.03;;;3.73;;
25435;SDS011;13363;52.772;-3.890;2023-05-18T04:14:50;4.80;;;3.57;;
25435;SDS011;13363;52.772;-3.890;2023-05-18T04:17:18;7.90;;;3.77;;
25435;SDS011;13363;52.772;-3.890;2023-05-18T04:19:48;7.20;;;3.33;;
25435;SDS011;13363;52.772;-3.890;2023-05-18T04:22:14;4.07;;;3.07;;
25435;SDS011;13363;52.772;-3.890;2023-05-18T04:24:41;4.83;;;3.00;;
25435;SDS011;13363;52.772;-3.890;2023-05-18T04:27:09;4.07;;;3.60;;
25435;SDS011;13363;52.772;-3.890;2023-05-18T04:29:36;5.70;;;3.53;;
25435;SDS011;13363;52.772;-3.890;2023-05-18T04:32:08;6.10;;;3.43;;
25435;SDS011;13363;52.772;-3.890;2023-05-18T04:34:34;3.60;;;3.17;;
25435;SDS011;13363;52.772;-3.890;2023-05-18T04:37:01;3.83;;;3.53;;
25435;SDS011;13363;52.772;-3.890;2023-05-18T04:39:30;3.73;;;3.37;;
25435;SDS011;13363;52.772;-3.890;2023-05-18T04:41:57;3.33;;;3.07;;
25435;SDS011;13363;52.772;-3.890;2023-05-18T04:44:23;3.53;;;3.20;;
25435;SDS011;13363;52.772;-3.890;2023-05-18T04:46:55;3.80;;;3.40;;
25435;SDS011;13363;52.772;-3.890;2023-05-18T04:49:21;3.80;;;3.50;;
25435;SDS011;13363;52.772;-3.890;2023-05-18T04:51:48;7.83;;;4.10;;
25435;SDS011;13363;52.772;-3.890;2023-05-18T04:54:14;7.57;;;3.90;;
25435;SDS011;13363;52.772;-3.890;2023-05-18T04:56:41;3.93;;;3.30;;
25435;SDS011;13363;52.772;-3.890;2023-05-18T04:59:07;4.00;;;3.20;;
25435;SDS011;13363;52.772;-3.890;2023-05-18T05:01:34;4.03;;;3.63;;
25435;SDS011;13363;52.772;-3.890;2023-05-18T05:04:00;3.60;;;3.30;;
25435;SDS011;13363;52.772;-3.890;2023-05-18T05:06:26;4.13;;;3.73;;
25435;SDS011;13363;52.772;-3.890;2023-05-18T05:08:52;5.27;;;3.33;;
25435;SDS011;13363;52.772;-3.890;2023-05-18T05:11:18;3.90;;;3.60;;
25435;SDS011;13363;52.772;-3.890;2023-05-18T05:13:45;3.83;;;3.37;;
25435;SDS011;13363;52.772;-3.890;2023-05-18T05:16:11;4.83;;;3.30;;
25435;SDS011;13363;52.772;-3.890;2023-05-18T05:18:37;4.20;;;3.73;;
25435;SDS011;13363;52.772;-3.890;2023-05-18T05:21:03;5.93;;;3.60;;
25435;SDS011;13363;52.772;-3.890;2023-05-18T05:23:30;4.97;;;3.40;;
25435;SDS011;13363;52.772;-3.890;2023-05-18T05:25:56;5.70;;;3.67;;
25435;SDS011;13363;52.772;-3.890;2023-05-18T05:28:22;3.20;;;2.97;;
25435;SDS011;13363;52.772;-3.890;2023-05-18T05:30:49;4.80;;;3.23;;
25435;SDS011;13363;52.772;-3.890;2023-05-18T05:33:15;4.10;;;3.80;;
25435;SDS011;13363;52.772;-3.890;2023-05-18T05:35:41;3.83;;;3.47;;
25435;SDS011;13363;52.772;-3.890;2023-05-18T05:38:07;4.23;;;3.70;;
25435;SDS011;13363;52.772;-3.890;2023-05-18T05:40:33;4.07;;;3.77;;
25435;SDS011;13363;52.772;-3.890;2023-05-18T05:42:59;4.07;;;3.47;;
25435;SDS011;13363;52.772;-3.890;2023-05-18T05:45:25;6.43;;;3.80;;
25435;SDS011;13363;52.772;-3.890;2023-05-18T05:47:53;4.03;;;3.60;;
25435;SDS011;13363;52.772;-3.890;2023-05-18T05:50:19;4.20;;;3.07;;
25435;SDS011;13363;52.772;-3.890;2023-05-18T05:52:46;3.63;;;3.30;;
25435;SDS011;13363;52.772;-3.890;2023-05-18T05:55:12;4.00;;;3.57;;
25435;SDS011;13363;52.772;-3.890;2023-05-18T05:57:38;4.10;;;3.23;;
25435;SDS011;13363;52.772;-3.890;2023-05-18T06:00:09;3.23;;;3.03;;
25435;SDS011;13363;52.772;-3.890;2023-05-18T06:02:36;3.47;;;3.27;;
25435;SDS011;13363;52.772;-3.890;2023-05-18T06:05:02;4.90;;;3.37;;
25435;SDS011;13363;52.772;-3.890;2023-05-18T06:07:28;4.23;;;3.40;;
25435;SDS011;13363;52.772;-3.890;2023-05-18T06:09:54;4.30;;;3.00;;
25435;SDS011;13363;52.772;-3.890;2023-05-18T06:12:20;6.80;;;3.67;;
25435;SDS011;13363;52.772;-3.890;2023-05-18T06:14:46;3.07;;;2.77;;
25435;SDS011;13363;52.772;-3.890;2023-05-18T06:17:12;4.00;;;3.60;;
25435;SDS011;13363;52.772;-3.890;2023-05-18T06:19:38;3.80;;;2.87;;
25435;SDS011;13363;52.772;-3.890;2023-05-18T06:22:04;3.53;;;3.20;;
25435;SDS011;13363;52.772;-3.890;2023-05-18T06:24:30;3.93;;;3.50;;
25435;SDS011;13363;52.772;-3.890;2023-05-18T06:26:57;4.27;;;3.70;;
25435;SDS011;13363;52.772;-3.890;2023-05-18T06:29:23;4.23;;;3.20;;
25435;SDS011;13363;52.772;-3.890;2023-05-18T06:31:49;5.20;;;3.40;;
25435;SDS011;13363;52.772;-3.890;2023-05-18T06:34:15;4.83;;;3.67;;
25435;SDS011;13363;52.772;-3.890;2023-05-18T06:36:41;4.30;;;3.50;;
25435;SDS011;13363;52.772;-3.890;2023-05-18T06:39:07;3.73;;;3.43;;
25435;SDS011;13363;52.772;-3.890;2023-05-18T06:41:34;3.90;;;3.60;;
25435;SDS011;13363;52.772;-3.890;2023-05-18T06:44:00;5.77;;;3.80;;
25435;SDS011;13363;52.772;-3.890;2023-05-18T06:46:26;3.13;;;2.93;;
25435;SDS011;13363;52.772;-3.890;2023-05-18T06:48:52;4.10;;;3.60;;
25435;SDS011;13363;52.772;-3.890;2023-05-18T06:51:19;3.43;;;3.13;;
25435;SDS011;13363;52.772;-3.890;2023-05-18T06:53:44;3.57;;;3.27;;
25435;SDS011;13363;52.772;-3.890;2023-05-18T06:56:11;3.53;;;3.23;;
25435;SDS011;13363;52.772;-3.890;2023-05-18T06:58:40;3.60;;;3.30;;
25435;SDS011;13363;52.772;-3.890;2023-05-18T07:01:07;3.00;;;2.80;;
25435;SDS011;13363;52.772;-3.890;2023-05-18T07:03:33;4.17;;;3.37;;
25435;SDS011;13363;52.772;-3.890;2023-05-18T07:05:59;3.23;;;3.03;;
25435;SDS011;13363;52.772;-3.890;2023-05-18T07:08:26;4.73;;;2.90;;
25435;SDS011;13363;52.772;-3.890;2023-05-18T07:10:51;4.70;;;2.93;;
25435;SDS011;13363;52.772;-3.890;2023-05-18T07:13:18;3.70;;;3.40;;
25435;SDS011;13363;52.772;-3.890;2023-05-18T07:15:44;5.20;;;3.00;;
25435;SDS011;13363;52.772;-3.890;2023-05-18T07:18:11;3.47;;;2.97;;
25435;SDS011;13363;52.772;-3.890;2023-05-18T07:20:36;4.67;;;2.97;;
25435;SDS011;13363;52.772;-3.890;2023-05-18T07:23:02;3.07;;;2.77;;
25435;SDS011;13363;52.772;-3.890;2023-05-18T07:25:28;3.23;;;2.77;;
25435;SDS011;13363;52.772;-3.890;2023-05-18T07:27:54;3.47;;;3.17;;
25435;SDS011;13363;52.772;-3.890;2023-05-18T07:30:21;3.20;;;3.00;;
25435;SDS011;13363;52.772;-3.890;2023-05-18T07:32:47;4.10;;;3.10;;
25435;SDS011;13363;52.772;-3.890;2023-05-18T07:35:14;3.30;;;3.00;;
25435;SDS011;13363;52.772;-3.890;2023-05-18T07:37:43;4.00;;;2.90;;
25435;SDS011;13363;52.772;-3.890;2023-05-18T07:40:09;3.23;;;2.80;;
25435;SDS011;13363;52.772;-3.890;2023-05-18T07:42:39;3.70;;;2.70;;
25435;SDS011;13363;52.772;-3.890;2023-05-18T07:45:07;3.17;;;2.90;;
25435;SDS011;13363;52.772;-3.890;2023-05-18T07:47:34;2.80;;;2.60;;
25435;SDS011;13363;52.772;-3.890;2023-05-18T07:50:00;3.63;;;2.60;;
25435;SDS011;13363;52.772;-3.890;2023-05-18T07:52:26;4.33;;;2.80;;
25435;SDS011;13363;52.772;-3.890;2023-05-18T07:54:54;5.10;;;3.17;;
25435;SDS011;13363;52.772;-3.890;2023-05-18T07:57:24;6.23;;;2.67;;
25435;SDS011;13363;52.772;-3.890;2023-05-18T07:59:51;3.63;;;2.50;;
25435;SDS011;13363;52.772;-3.890;2023-05-18T08:02:17;3.40;;;2.27;;
25435;SDS011;13363;52.772;-3.890;2023-05-18T08:04:44;2.57;;;2.27;;
25435;SDS011;13363;52.772;-3.890;2023-05-18T08:07:10;4.27;;;2.73;;
25435;SDS011;13363;52.772;-3.890;2023-05-18T08:09:37;2.50;;;2.30;;
25435;SDS011;13363;52.772;-3.890;2023-05-18T08:12:03;2.53;;;2.10;;
25435;SDS011;13363;52.772;-3.890;2023-05-18T08:14:30;3.80;;;2.37;;
25435;SDS011;13363;52.772;-3.890;2023-05-18T08:16:56;3.70;;;2.30;;
25435;SDS011;13363;52.772;-3.890;2023-05-18T08:19:24;4.27;;;2.37;;
25435;SDS011;13363;52.772;-3.890;2023-05-18T08:21:50;2.40;;;2.07;;
25435;SDS011;13363;52.772;-3.890;2023-05-18T08:24:16;2.97;;;2.00;;
25435;SDS011;13363;52.772;-3.890;2023-05-18T08:26:42;2.97;;;2.43;;
25435;SDS011;13363;52.772;-3.890;2023-05-18T08:29:08;3.47;;;1.90;;
25435;SDS011;13363;52.772;-3.890;2023-05-18T08:31:39;3.10;;;2.40;;
25435;SDS011;13363;52.772;-3.890;2023-05-18T08:34:07;2.37;;;2.17;;
25435;SDS011;13363;52.772;-3.890;2023-05-18T08:36:34;2.60;;;2.40;;
25435;SDS011;13363;52.772;-3.890;2023-05-18T08:39:02;2.70;;;2.40;;
25435;SDS011;13363;52.772;-3.890;2023-05-18T08:44:39;2.73;;;2.30;;
25435;SDS011;13363;52.772;-3.890;2023-05-18T08:47:08;2.60;;;2.33;;
25435;SDS011;13363;52.772;-3.890;2023-05-18T08:49:37;3.63;;;2.17;;
25435;SDS011;13363;52.772;-3.890;2023-05-18T08:52:06;2.43;;;2.00;;
25435;SDS011;13363;52.772;-3.890;2023-05-18T08:54:33;2.73;;;2.23;;
25435;SDS011;13363;52.772;-3.890;2023-05-18T08:57:02;2.50;;;2.30;;
25435;SDS011;13363;52.772;-3.890;2023-05-18T08:59:32;3.27;;;2.70;;
25435;SDS011;13363;52.772;-3.890;2023-05-18T09:02:03;3.30;;;2.17;;
25435;SDS011;13363;52.772;-3.890;2023-05-18T09:04:30;2.90;;;2.70;;
25435;SDS011;13363;52.772;-3.890;2023-05-18T09:07:00;2.77;;;2.33;;
25435;SDS011;13363;52.772;-3.890;2023-05-18T09:09:28;2.90;;;2.37;;
25435;SDS011;13363;52.772;-3.890;2023-05-18T09:11:55;2.43;;;2.23;;
25435;SDS011;13363;52.772;-3.890;2023-05-18T09:14:21;3.07;;;2.10;;
25435;SDS011;13363;52.772;-3.890;2023-05-18T09:16:51;3.43;;;2.40;;
25435;SDS011;13363;52.772;-3.890;2023-05-18T09:19:17;2.83;;;2.50;;
25435;SDS011;13363;52.772;-3.890;2023-05-18T09:21:43;2.77;;;2.40;;
25435;SDS011;13363;52.772;-3.890;2023-05-18T09:24:10;4.87;;;2.20;;
25435;SDS011;13363;52.772;-3.890;2023-05-18T09:26:39;4.43;;;2.13;;
25435;SDS011;13363;52.772;-3.890;2023-05-18T09:29:18;6.60;;;2.60;;
25435;SDS011;13363;52.772;-3.890;2023-05-18T09:31:45;2.40;;;2.17;;
25435;SDS011;13363;52.772;-3.890;2023-05-18T09:34:12;3.73;;;2.37;;
25435;SDS011;13363;52.772;-3.890;2023-05-18T09:36:39;3.43;;;2.30;;
25435;SDS011;13363;52.772;-3.890;2023-05-18T09:39:07;2.83;;;2.63;;
25435;SDS011;13363;52.772;-3.890;2023-05-18T09:41:36;3.10;;;2.27;;
25435;SDS011;13363;52.772;-3.890;2023-05-18T09:44:05;2.97;;;1.97;;
25435;SDS011;13363;52.772;-3.890;2023-05-18T09:46:39;4.43;;;2.43;;
25435;SDS011;13363;52.772;-3.890;2023-05-18T09:49:06;3.87;;;2.67;;
25435;SDS011;13363;52.772;-3.890;2023-05-18T09:51:34;5.10;;;2.60;;
25435;SDS011;13363;52.772;-3.890;2023-05-18T09:54:00;2.33;;;2.13;;
25435;SDS011;13363;52.772;-3.890;2023-05-18T09:56:30;3.40;;;2.43;;
25435;SDS011;13363;52.772;-3.890;2023-05-18T09:58:58;3.80;;;2.17;;
25435;SDS011;13363;52.772;-3.890;2023-05-18T10:01:36;2.97;;;2.47;;
25435;SDS011;13363;52.772;-3.890;2023-05-18T10:04:19;2.53;;;2.13;;
25435;SDS011;13363;52.772;-3.890;2023-05-18T10:06:49;3.00;;;2.50;;
25435;SDS011;13363;52.772;-3.890;2023-05-18T10:09:16;5.37;;;2.50;;
25435;SDS011;13363;52.772;-3.890;2023-05-18T10:11:42;6.30;;;2.27;;
25435;SDS011;13363;52.772;-3.890;2023-05-18T10:14:11;6.87;;;2.97;;
25435;SDS011;13363;52.772;-3.890;2023-05-18T10:16:39;3.00;;;2.30;;
25435;SDS011;13363;52.772;-3.890;2023-05-18T10:19:05;3.40;;;2.80;;
25435;SDS011;13363;52.772;-3.890;2023-05-18T10:21:35;3.87;;;2.10;;
25435;SDS011;13363;52.772;-3.890;2023-05-18T10:24:02;4.10;;;2.60;;
25435;SDS011;13363;52.772;-3.890;2023-05-18T10:26:29;3.20;;;2.40;;
25435;SDS011;13363;52.772;-3.890;2023-05-18T10:29:01;5.23;;;2.30;;
25435;SDS011;13363;52.772;-3.890;2023-05-18T10:31:29;4.60;;;2.20;;
25435;SDS011;13363;52.772;-3.890;2023-05-18T10:33:56;3.83;;;2.70;;
25435;SDS011;13363;52.772;-3.890;2023-05-18T10:36:24;4.67;;;2.27;;
25435;SDS011;13363;52.772;-3.890;2023-05-18T10:38:52;2.73;;;2.53;;
25435;SDS011;13363;52.772;-3.890;2023-05-18T10:41:20;4.30;;;2.50;;
25435;SDS011;13363;52.772;-3.890;2023-05-18T10:43:47;4.40;;;2.40;;
25435;SDS011;13363;52.772;-3.890;2023-05-18T10:46:14;3.13;;;2.43;;
25435;SDS011;13363;52.772;-3.890;2023-05-18T10:48:41;6.73;;;2.50;;
25435;SDS011;13363;52.772;-3.890;2023-05-18T10:51:07;6.47;;;2.47;;
25435;SDS011;13363;52.772;-3.890;2023-05-18T10:53:34;4.30;;;2.87;;
25435;SDS011;13363;52.772;-3.890;2023-05-18T10:56:00;3.30;;;2.80;;
25435;SDS011;13363;52.772;-3.890;2023-05-18T10:58:27;3.63;;;2.50;;
25435;SDS011;13363;52.772;-3.890;2023-05-18T11:00:59;8.00;;;2.50;;
25435;SDS011;13363;52.772;-3.890;2023-05-18T11:03:27;3.07;;;2.07;;
25435;SDS011;13363;52.772;-3.890;2023-05-18T11:08:32;4.93;;;2.20;;
25435;SDS011;13363;52.772;-3.890;2023-05-18T11:11:02;4.13;;;2.60;;
25435;SDS011;13363;52.772;-3.890;2023-05-18T11:13:32;5.20;;;2.13;;
25435;SDS011;13363;52.772;-3.890;2023-05-18T11:27:13;4.13;;;2.20;;
25435;SDS011;13363;52.772;-3.890;2023-05-18T11:29:40;2.93;;;2.60;;
25435;SDS011;13363;52.772;-3.890;2023-05-18T11:32:23;2.30;;;2.10;;
25435;SDS011;13363;52.772;-3.890;2023-05-18T11:34:52;7.30;;;2.73;;
25435;SDS011;13363;52.772;-3.890;2023-05-18T11:38:03;3.30;;;2.27;;
25435;SDS011;13363;52.772;-3.890;2023-05-18T11:40:12;3.93;;;2.80;;
25435;SDS011;13363;52.772;-3.890;2023-05-18T11:42:57;5.67;;;2.80;;
25435;SDS011;13363;52.772;-3.890;2023-05-18T11:45:23;2.93;;;2.40;;
25435;SDS011;13363;52.772;-3.890;2023-05-18T11:47:54;4.17;;;2.83;;
25435;SDS011;13363;52.772;-3.890;2023-05-18T11:50:21;2.80;;;2.60;;
25435;SDS011;13363;52.772;-3.890;2023-05-18T11:52:47;4.93;;;2.40;;
25435;SDS011;13363;52.772;-3.890;2023-05-18T11:55:17;8.50;;;2.97;;
25435;SDS011;13363;52.772;-3.890;2023-05-18T11:57:46;3.37;;;2.50;;
25435;SDS011;13363;52.772;-3.890;2023-05-18T12:00:14;4.40;;;2.67;;
25435;SDS011;13363;52.772;-3.890;2023-05-18T12:02:41;3.47;;;2.77;;
25435;SDS011;13363;52.772;-3.890;2023-05-18T12:05:09;9.03;;;3.30;;
25435;SDS011;13363;52.772;-3.890;2023-05-18T12:07:35;4.50;;;2.77;;
25435;SDS011;13363;52.772;-3.890;2023-05-18T12:10:07;5.70;;;2.90;;
25435;SDS011;13363;52.772;-3.890;2023-05-18T12:12:34;8.90;;;3.20;;
25435;SDS011;13363;52.772;-3.890;2023-05-18T12:15:01;6.60;;;2.60;;
25435;SDS011;13363;52.772;-3.890;2023-05-18T12:17:38;5.37;;;3.10;;
25435;SDS011;13363;52.772;-3.890;2023-05-18T12:20:10;4.00;;;2.83;;
25435;SDS011;13363;52.772;-3.890;2023-05-18T12:22:40;4.00;;;2.53;;
25435;SDS011;13363;52.772;-3.890;2023-05-18T12:25:07;2.83;;;2.63;;
25435;SDS011;13363;52.772;-3.890;2023-05-18T12:27:38;3.23;;;2.80;;
25435;SDS011;13363;52.772;-3.890;2023-05-18T12:30:05;6.13;;;2.90;;
25435;SDS011;13363;52.772;-3.890;2023-05-18T12:32:38;2.67;;;2.47;;
25435;SDS011;13363;52.772;-3.890;2023-05-18T12:35:08;3.30;;;3.00;;
25435;SDS011;13363;52.772;-3.890;2023-05-18T12:37:41;4.37;;;3.33;;
25435;SDS011;13363;52.772;-3.890;2023-05-18T12:40:10;3.63;;;2.77;;
25435;SDS011;13363;52.772;-3.890;2023-05-18T12:42:38;5.20;;;3.00;;
25435;SDS011;13363;52.772;-3.890;2023-05-18T12:45:04;3.73;;;3.13;;
25435;SDS011;13363;52.772;-3.890;2023-05-18T12:47:31;6.17;;;2.90;;
25435;SDS011;13363;52.772;-3.890;2023-05-18T12:50:04;3.80;;;3.17;;
25435;SDS011;13363;52.772;-3.890;2023-05-18T12:52:31;4.67;;;3.20;;
25435;SDS011;13363;52.772;-3.890;2023-05-18T12:54:57;5.53;;;3.20;;
25435;SDS011;13363;52.772;-3.890;2023-05-18T12:57:24;6.07;;;3.43;;
25435;SDS011;13363;52.772;-3.890;2023-05-18T12:59:54;4.40;;;3.17;;
25435;SDS011;13363;52.772;-3.890;2023-05-18T13:02:34;6.73;;;3.17;;
25435;SDS011;13363;52.772;-3.890;2023-05-18T13:05:02;4.07;;;2.80;;
25435;SDS011;13363;52.772;-3.890;2023-05-18T13:07:35;7.30;;;3.67;;
25435;SDS011;13363;52.772;-3.890;2023-05-18T13:10:12;6.60;;;3.47;;
25435;SDS011;13363;52.772;-3.890;2023-05-18T13:12:45;7.90;;;3.20;;
25435;SDS011;13363;52.772;-3.890;2023-05-18T13:15:13;5.30;;;3.33;;
25435;SDS011;13363;52.772;-3.890;2023-05-18T13:23:13;11.83;;;4.43;;
25435;SDS011;13363;52.772;-3.890;2023-05-18T13:25:40;5.53;;;3.33;;
25435;SDS011;13363;52.772;-3.890;2023-05-18T13:28:07;3.93;;;3.50;;
25435;SDS011;13363;52.772;-3.890;2023-05-18T13:30:35;5.83;;;3.13;;
25435;SDS011;13363;52.772;-3.890;2023-05-18T13:33:02;2.97;;;2.10;;
25435;SDS011;13363;52.772;-3.890;2023-05-18T13:35:29;6.60;;;3.70;;
25435;SDS011;13363;52.772;-3.890;2023-05-18T13:37:55;6.10;;;3.60;;
25435;SDS011;13363;52.772;-3.890;2023-05-18T13:40:21;4.80;;;4.30;;
25435;SDS011;13363;52.772;-3.890;2023-05-18T13:42:49;5.23;;;3.30;;
25435;SDS011;13363;52.772;-3.890;2023-05-18T13:45:15;5.47;;;3.80;;
25435;SDS011;13363;52.772;-3.890;2023-05-18T13:47:41;9.57;;;3.77;;
25435;SDS011;13363;52.772;-3.890;2023-05-18T13:50:11;7.20;;;3.60;;
25435;SDS011;13363;52.772;-3.890;2023-05-18T13:52:38;4.40;;;3.87;;
25435;SDS011;13363;52.772;-3.890;2023-05-18T13:55:05;10.53;;;4.07;;
25435;SDS011;13363;52.772;-3.890;2023-05-18T13:57:32;5.43;;;3.70;;
25435;SDS011;13363;52.772;-3.890;2023-05-18T14:00:00;5.90;;;3.70;;
25435;SDS011;13363;52.772;-3.890;2023-05-18T14:02:40;5.43;;;4.17;;
25435;SDS011;13363;52.772;-3.890;2023-05-18T14:05:08;3.77;;;3.20;;
25435;SDS011;13363;52.772;-3.890;2023-05-18T14:07:35;5.13;;;3.47;;
25435;SDS011;13363;52.772;-3.890;2023-05-18T14:10:02;5.53;;;4.07;;
25435;SDS011;13363;52.772;-3.890;2023-05-18T14:12:29;6.23;;;4.27;;
25435;SDS011;13363;52.772;-3.890;2023-05-18T14:14:56;4.73;;;3.80;;
25435;SDS011;13363;52.772;-3.890;2023-05-18T14:17:22;13.33;;;4.30;;
25435;SDS011;13363;52.772;-3.890;2023-05-18T14:19:48;3.13;;;2.90;;
25435;SDS011;13363;52.772;-3.890;2023-05-18T14:22:15;5.07;;;3.10;;
25435;SDS011;13363;52.772;-3.890;2023-05-18T14:24:42;6.87;;;3.40;;
25435;SDS011;13363;52.772;-3.890;2023-05-18T14:27:08;5.27;;;3.20;;
25435;SDS011;13363;52.772;-3.890;2023-05-18T14:29:35;7.73;;;3.97;;
25435;SDS011;13363;52.772;-3.890;2023-05-18T14:32:01;7.57;;;3.70;;
25435;SDS011;13363;52.772;-3.890;2023-05-18T14:34:27;6.53;;;3.93;;
25435;SDS011;13363;52.772;-3.890;2023-05-18T14:36:53;6.27;;;2.87;;
25435;SDS011;13363;52.772;-3.890;2023-05-18T14:39:19;5.17;;;3.53;;
25435;SDS011;13363;52.772;-3.890;2023-05-18T14:41:45;5.33;;;3.63;;
25435;SDS011;13363;52.772;-3.890;2023-05-18T14:44:11;4.00;;;3.40;;
25435;SDS011;13363;52.772;-3.890;2023-05-18T14:46:37;7.97;;;4.00;;
25435;SDS011;13363;52.772;-3.890;2023-05-18T14:49:04;4.33;;;3.03;;
25435;SDS011;13363;52.772;-3.890;2023-05-18T14:51:30;5.10;;;3.90;;
25435;SDS011;13363;52.772;-3.890;2023-05-18T14:53:56;4.27;;;2.93;;
25435;SDS011;13363;52.772;-3.890;2023-05-18T14:56:23;6.17;;;4.53;;
25435;SDS011;13363;52.772;-3.890;2023-05-18T14:58:49;10.93;;;4.03;;
25435;SDS011;13363;52.772;-3.890;2023-05-18T15:01:15;8.20;;;4.17;;
25435;SDS011;13363;52.772;-3.890;2023-05-18T15:03:41;5.03;;;3.70;;
25435;SDS011;13363;52.772;-3.890;2023-05-18T15:06:07;8.23;;;4.70;;